sensor_id;sensor_type;location;lat;lon;timestamp;P1;durP1;ratioP1;P2;durP2;ratioP2
35128;SDS011;21301;43.626;10.580;2023-02-28T00:00:45;10.05;;;4.13;;
35128;SDS011;21301;43.626;10.580;2023-02-28T00:03:11;6.93;;;3.90;;
35128;SDS011;21301;43.626;10.580;2023-02-28T00:05:36;12.73;;;5.50;;
35128;SDS011;21301;43.626;10.580;2023-02-28T00:08:03;8.40;;;4.50;;
35128;SDS011;21301;43.626;10.580;2023-02-28T00:10:29;10.10;;;4.88;;
35128;SDS011;21301;43.626;10.580;2023-02-28T00:12:59;11.43;;;4.80;;
35128;SDS011;21301;43.626;10.580;2023-02-28T00:15:27;8.07;;;4.00;;
35128;SDS011;21301;43.626;10.580;2023-02-28T00:17:53;6.60;;;3.65;;
35128;SDS011;21301;43.626;10.580;2023-02-28T00:20:19;11.35;;;4.70;;
35128;SDS011;21301;43.626;10.580;2023-02-28T00:22:46;11.23;;;5.70;;
35128;SDS011;21301;43.626;10.580;2023-02-28T00:25:15;8.93;;;4.88;;
35128;SDS011;21301;43.626;10.580;2023-02-28T00:27:42;8.40;;;4.05;;
35128;SDS011;21301;43.626;10.580;2023-02-28T00:30:09;7.45;;;4.05;;
35128;SDS011;21301;43.626;10.580;2023-02-28T00:32:37;10.70;;;5.07;;
35128;SDS011;21301;43.626;10.580;2023-02-28T00:35:04;14.43;;;5.70;;
35128;SDS011;21301;43.626;10.580;2023-02-28T00:37:30;7.82;;;4.95;;
35128;SDS011;21301;43.626;10.580;2023-02-28T00:39:56;8.38;;;4.40;;
35128;SDS011;21301;43.626;10.580;2023-02-28T00:42:22;8.15;;;4.55;;
35128;SDS011;21301;43.626;10.580;2023-02-28T00:44:48;9.73;;;5.78;;
35128;SDS011;21301;43.626;10.580;2023-02-28T00:47:14;8.32;;;4.82;;
35128;SDS011;21301;43.626;10.580;2023-02-28T00:49:42;16.88;;;4.38;;
35128;SDS011;21301;43.626;10.580;2023-02-28T00:52:08;7.72;;;4.07;;
35128;SDS011;21301;43.626;10.580;2023-02-28T00:54:34;9.45;;;4.82;;
35128;SDS011;21301;43.626;10.580;2023-02-28T00:57:00;7.38;;;3.78;;
35128;SDS011;21301;43.626;10.580;2023-02-28T00:59:26;12.02;;;5.28;;
35128;SDS011;21301;43.626;10.580;2023-02-28T01:01:52;8.98;;;5.03;;
35128;SDS011;21301;43.626;10.580;2023-02-28T01:04:18;10.50;;;5.68;;
35128;SDS011;21301;43.626;10.580;2023-02-28T01:06:44;11.60;;;5.00;;
35128;SDS011;21301;43.626;10.580;2023-02-28T01:09:10;9.82;;;4.93;;
35128;SDS011;21301;43.626;10.580;2023-02-28T01:11:36;10.95;;;5.47;;
35128;SDS011;21301;43.626;10.580;2023-02-28T01:14:03;10.35;;;4.78;;
35128;SDS011;21301;43.626;10.580;2023-02-28T01:16:29;10.07;;;4.25;;
35128;SDS011;21301;43.626;10.580;2023-02-28T01:18:55;8.68;;;5.15;;
35128;SDS011;21301;43.626;10.580;2023-02-28T01:21:21;9.57;;;5.70;;
35128;SDS011;21301;43.626;10.580;2023-02-28T01:23:47;8.13;;;4.47;;
35128;SDS011;21301;43.626;10.580;2023-02-28T01:26:15;8.73;;;4.68;;
35128;SDS011;21301;43.626;10.580;2023-02-28T01:28:43;10.35;;;5.38;;
35128;SDS011;21301;43.626;10.580;2023-02-28T01:31:09;7.28;;;4.63;;
35128;SDS011;21301;43.626;10.580;2023-02-28T01:33:37;8.57;;;4.90;;
35128;SDS011;21301;43.626;10.580;2023-02-28T01:36:05;11.10;;;5.80;;
35128;SDS011;21301;43.626;10.580;2023-02-28T01:38:34;11.68;;;4.63;;
35128;SDS011;21301;43.626;10.580;2023-02-28T01:41:00;12.52;;;4.93;;
35128;SDS011;21301;43.626;10.580;2023-02-28T01:43:27;12.07;;;6.07;;
35128;SDS011;21301;43.626;10.580;2023-02-28T01:45:55;9.15;;;5.20;;
35128;SDS011;21301;43.626;10.580;2023-02-28T01:48:27;12.82;;;5.68;;
35128;SDS011;21301;43.626;10.580;2023-02-28T01:51:01;9.38;;;5.50;;
35128;SDS011;21301;43.626;10.580;2023-02-28T01:53:39;11.55;;;6.20;;
35128;SDS011;21301;43.626;10.580;2023-02-28T01:56:16;8.68;;;5.43;;
35128;SDS011;21301;43.626;10.580;2023-02-28T01:58:48;11.63;;;5.72;;
35128;SDS011;21301;43.626;10.580;2023-02-28T02:01:16;9.30;;;5.28;;
35128;SDS011;21301;43.626;10.580;2023-02-28T02:03:56;10.75;;;5.70;;
35128;SDS011;21301;43.626;10.580;2023-02-28T02:06:25;10.90;;;6.75;;
35128;SDS011;21301;43.626;10.580;2023-02-28T02:08:56;10.75;;;4.90;;
35128;SDS011;21301;43.626;10.580;2023-02-28T02:11:22;11.02;;;5.63;;
35128;SDS011;21301;43.626;10.580;2023-02-28T02:14:01;12.68;;;6.15;;
35128;SDS011;21301;43.626;10.580;2023-02-28T02:36:38;8.97;;;5.17;;
35128;SDS011;21301;43.626;10.580;2023-02-28T02:42:13;9.77;;;5.57;;
35128;SDS011;21301;43.626;10.580;2023-02-28T02:44:47;8.10;;;5.03;;
35128;SDS011;21301;43.626;10.580;2023-02-28T02:47:19;10.10;;;5.82;;
35128;SDS011;21301;43.626;10.580;2023-02-28T02:49:58;13.73;;;6.18;;
35128;SDS011;21301;43.626;10.580;2023-02-28T02:52:36;8.80;;;5.22;;
35128;SDS011;21301;43.626;10.580;2023-02-28T02:55:07;8.73;;;4.43;;
35128;SDS011;21301;43.626;10.580;2023-02-28T02:58:10;9.10;;;5.40;;
35128;SDS011;21301;43.626;10.580;2023-02-28T03:00:31;9.18;;;5.18;;
35128;SDS011;21301;43.626;10.580;2023-02-28T03:03:01;9.15;;;5.47;;
35128;SDS011;21301;43.626;10.580;2023-02-28T03:05:30;10.98;;;5.70;;
35128;SDS011;21301;43.626;10.580;2023-02-28T03:08:03;11.70;;;6.00;;
35128;SDS011;21301;43.626;10.580;2023-02-28T03:10:40;10.00;;;5.55;;
35128;SDS011;21301;43.626;10.580;2023-02-28T03:21:21;10.52;;;5.22;;
35128;SDS011;21301;43.626;10.580;2023-02-28T03:24:05;11.98;;;6.18;;
35128;SDS011;21301;43.626;10.580;2023-02-28T03:26:42;10.07;;;4.85;;
35128;SDS011;21301;43.626;10.580;2023-02-28T03:31:44;7.55;;;4.57;;
35128;SDS011;21301;43.626;10.580;2023-02-28T03:34:19;10.70;;;5.20;;
35128;SDS011;21301;43.626;10.580;2023-02-28T03:37:04;9.05;;;4.80;;
35128;SDS011;21301;43.626;10.580;2023-02-28T03:39:38;12.80;;;5.50;;
35128;SDS011;21301;43.626;10.580;2023-02-28T03:42:09;11.00;;;4.90;;
35128;SDS011;21301;43.626;10.580;2023-02-28T03:47:21;15.35;;;6.15;;
35128;SDS011;21301;43.626;10.580;2023-02-28T03:52:32;10.05;;;5.32;;
35128;SDS011;21301;43.626;10.580;2023-02-28T03:55:02;9.35;;;4.78;;
35128;SDS011;21301;43.626;10.580;2023-02-28T03:57:43;8.98;;;5.50;;
35128;SDS011;21301;43.626;10.580;2023-02-28T04:02:46;8.82;;;4.63;;
35128;SDS011;21301;43.626;10.580;2023-02-28T04:05:18;9.77;;;3.90;;
35128;SDS011;21301;43.626;10.580;2023-02-28T04:07:45;10.13;;;5.18;;
35128;SDS011;21301;43.626;10.580;2023-02-28T04:10:11;8.38;;;3.38;;
35128;SDS011;21301;43.626;10.580;2023-02-28T04:12:37;8.70;;;4.53;;
35128;SDS011;21301;43.626;10.580;2023-02-28T04:15:03;7.53;;;4.07;;
35128;SDS011;21301;43.626;10.580;2023-02-28T04:17:30;8.13;;;4.35;;
35128;SDS011;21301;43.626;10.580;2023-02-28T04:19:56;7.75;;;4.57;;
35128;SDS011;21301;43.626;10.580;2023-02-28T04:22:22;7.63;;;3.53;;
35128;SDS011;21301;43.626;10.580;2023-02-28T04:24:51;7.90;;;4.05;;
35128;SDS011;21301;43.626;10.580;2023-02-28T04:27:19;8.05;;;3.70;;
35128;SDS011;21301;43.626;10.580;2023-02-28T04:29:45;6.80;;;3.25;;
35128;SDS011;21301;43.626;10.580;2023-02-28T04:32:11;7.53;;;3.83;;
35128;SDS011;21301;43.626;10.580;2023-02-28T04:34:37;7.70;;;3.70;;
35128;SDS011;21301;43.626;10.580;2023-02-28T04:37:03;6.10;;;3.13;;
35128;SDS011;21301;43.626;10.580;2023-02-28T04:39:29;7.03;;;3.47;;
35128;SDS011;21301;43.626;10.580;2023-02-28T04:41:55;6.82;;;3.38;;
35128;SDS011;21301;43.626;10.580;2023-02-28T04:44:21;5.68;;;3.42;;
35128;SDS011;21301;43.626;10.580;2023-02-28T04:46:48;7.80;;;3.58;;
35128;SDS011;21301;43.626;10.580;2023-02-28T04:49:14;10.30;;;3.33;;
35128;SDS011;21301;43.626;10.580;2023-02-28T04:51:40;6.20;;;2.55;;
35128;SDS011;21301;43.626;10.580;2023-02-28T04:54:07;8.43;;;3.40;;
35128;SDS011;21301;43.626;10.580;2023-02-28T04:56:33;6.18;;;2.95;;
35128;SDS011;21301;43.626;10.580;2023-02-28T04:58:59;6.03;;;2.97;;
35128;SDS011;21301;43.626;10.580;2023-02-28T05:01:26;10.20;;;3.88;;
35128;SDS011;21301;43.626;10.580;2023-02-28T05:03:55;6.88;;;3.95;;
35128;SDS011;21301;43.626;10.580;2023-02-28T05:06:24;7.93;;;3.53;;
35128;SDS011;21301;43.626;10.580;2023-02-28T05:08:52;8.85;;;3.38;;
35128;SDS011;21301;43.626;10.580;2023-02-28T05:13:51;9.05;;;3.47;;
35128;SDS011;21301;43.626;10.580;2023-02-28T05:16:18;6.93;;;3.42;;
35128;SDS011;21301;43.626;10.580;2023-02-28T05:18:44;8.93;;;3.15;;
35128;SDS011;21301;43.626;10.580;2023-02-28T05:21:29;8.18;;;3.35;;
35128;SDS011;21301;43.626;10.580;2023-02-28T05:23:56;9.38;;;3.53;;
35128;SDS011;21301;43.626;10.580;2023-02-28T05:26:23;6.00;;;3.60;;
35128;SDS011;21301;43.626;10.580;2023-02-28T05:28:50;7.00;;;3.28;;
35128;SDS011;21301;43.626;10.580;2023-02-28T05:31:16;5.95;;;2.88;;
35128;SDS011;21301;43.626;10.580;2023-02-28T05:33:42;6.78;;;3.58;;
35128;SDS011;21301;43.626;10.580;2023-02-28T05:36:07;7.90;;;3.30;;
35128;SDS011;21301;43.626;10.580;2023-02-28T05:38:33;6.18;;;3.05;;
35128;SDS011;21301;43.626;10.580;2023-02-28T05:40:59;7.28;;;2.97;;
35128;SDS011;21301;43.626;10.580;2023-02-28T05:43:25;6.97;;;3.20;;
35128;SDS011;21301;43.626;10.580;2023-02-28T05:45:51;6.47;;;3.22;;
35128;SDS011;21301;43.626;10.580;2023-02-28T05:48:17;7.72;;;4.20;;
35128;SDS011;21301;43.626;10.580;2023-02-28T05:50:43;7.25;;;3.08;;
35128;SDS011;21301;43.626;10.580;2023-02-28T05:53:11;8.30;;;4.50;;
35128;SDS011;21301;43.626;10.580;2023-02-28T05:55:37;6.22;;;3.28;;
35128;SDS011;21301;43.626;10.580;2023-02-28T05:58:03;8.90;;;3.53;;
35128;SDS011;21301;43.626;10.580;2023-02-28T06:00:29;6.45;;;3.80;;
35128;SDS011;21301;43.626;10.580;2023-02-28T06:02:55;6.95;;;3.35;;
35128;SDS011;21301;43.626;10.580;2023-02-28T06:05:23;7.28;;;3.85;;
35128;SDS011;21301;43.626;10.580;2023-02-28T06:07:49;7.70;;;3.35;;
35128;SDS011;21301;43.626;10.580;2023-02-28T06:10:15;6.65;;;3.13;;
35128;SDS011;21301;43.626;10.580;2023-02-28T06:12:41;6.45;;;2.95;;
35128;SDS011;21301;43.626;10.580;2023-02-28T06:15:07;6.75;;;3.45;;
35128;SDS011;21301;43.626;10.580;2023-02-28T06:17:40;7.57;;;3.53;;
35128;SDS011;21301;43.626;10.580;2023-02-28T06:20:07;7.97;;;3.72;;
35128;SDS011;21301;43.626;10.580;2023-02-28T06:22:35;5.78;;;3.35;;
35128;SDS011;21301;43.626;10.580;2023-02-28T06:25:02;6.30;;;3.47;;
35128;SDS011;21301;43.626;10.580;2023-02-28T06:27:30;7.10;;;3.78;;
35128;SDS011;21301;43.626;10.580;2023-02-28T06:29:56;6.35;;;3.45;;
35128;SDS011;21301;43.626;10.580;2023-02-28T06:32:22;8.43;;;4.18;;
35128;SDS011;21301;43.626;10.580;2023-02-28T06:34:48;10.80;;;4.43;;
35128;SDS011;21301;43.626;10.580;2023-02-28T06:37:15;9.48;;;3.80;;
35128;SDS011;21301;43.626;10.580;2023-02-28T06:39:42;6.85;;;3.30;;
35128;SDS011;21301;43.626;10.580;2023-02-28T06:42:07;7.78;;;3.75;;
35128;SDS011;21301;43.626;10.580;2023-02-28T06:44:33;6.40;;;3.20;;
35128;SDS011;21301;43.626;10.580;2023-02-28T06:47:03;6.03;;;3.13;;
35128;SDS011;21301;43.626;10.580;2023-02-28T06:49:31;8.05;;;3.75;;
35128;SDS011;21301;43.626;10.580;2023-02-28T06:51:57;6.88;;;3.55;;
35128;SDS011;21301;43.626;10.580;2023-02-28T06:54:23;9.55;;;4.70;;
35128;SDS011;21301;43.626;10.580;2023-02-28T06:56:49;7.65;;;3.97;;
35128;SDS011;21301;43.626;10.580;2023-02-28T06:59:15;9.05;;;4.07;;
35128;SDS011;21301;43.626;10.580;2023-02-28T07:01:42;8.45;;;4.43;;
35128;SDS011;21301;43.626;10.580;2023-02-28T07:04:07;8.68;;;3.92;;
35128;SDS011;21301;43.626;10.580;2023-02-28T07:06:33;9.23;;;3.83;;
35128;SDS011;21301;43.626;10.580;2023-02-28T07:08:59;9.10;;;4.00;;
35128;SDS011;21301;43.626;10.580;2023-02-28T07:11:26;9.73;;;3.50;;
35128;SDS011;21301;43.626;10.580;2023-02-28T07:13:53;6.75;;;3.92;;
35128;SDS011;21301;43.626;10.580;2023-02-28T07:16:20;6.25;;;2.80;;
35128;SDS011;21301;43.626;10.580;2023-02-28T07:18:46;7.93;;;3.65;;
35128;SDS011;21301;43.626;10.580;2023-02-28T07:21:15;5.57;;;2.55;;
35128;SDS011;21301;43.626;10.580;2023-02-28T07:23:41;8.60;;;4.50;;
35128;SDS011;21301;43.626;10.580;2023-02-28T07:26:10;7.40;;;3.70;;
35128;SDS011;21301;43.626;10.580;2023-02-28T07:28:40;7.80;;;3.47;;
35128;SDS011;21301;43.626;10.580;2023-02-28T07:31:10;5.95;;;3.00;;
35128;SDS011;21301;43.626;10.580;2023-02-28T07:33:37;5.57;;;2.40;;
35128;SDS011;21301;43.626;10.580;2023-02-28T07:36:05;5.30;;;2.63;;
35128;SDS011;21301;43.626;10.580;2023-02-28T07:38:36;6.13;;;2.35;;
35128;SDS011;21301;43.626;10.580;2023-02-28T07:41:03;5.15;;;2.75;;
35128;SDS011;21301;43.626;10.580;2023-02-28T07:43:29;7.57;;;2.65;;
35128;SDS011;21301;43.626;10.580;2023-02-28T07:46:01;4.50;;;2.10;;
35128;SDS011;21301;43.626;10.580;2023-02-28T07:48:31;4.28;;;1.67;;
35128;SDS011;21301;43.626;10.580;2023-02-28T07:50:58;3.67;;;1.80;;
35128;SDS011;21301;43.626;10.580;2023-02-28T07:53:24;6.05;;;2.25;;
35128;SDS011;21301;43.626;10.580;2023-02-28T07:55:54;7.55;;;2.20;;
35128;SDS011;21301;43.626;10.580;2023-02-28T07:58:20;4.38;;;2.05;;
35128;SDS011;21301;43.626;10.580;2023-02-28T08:00:46;4.32;;;1.98;;
35128;SDS011;21301;43.626;10.580;2023-02-28T08:03:12;3.78;;;1.67;;
35128;SDS011;21301;43.626;10.580;2023-02-28T08:05:39;3.55;;;1.48;;
35128;SDS011;21301;43.626;10.580;2023-02-28T08:08:08;4.60;;;2.03;;
35128;SDS011;21301;43.626;10.580;2023-02-28T08:10:34;3.97;;;1.65;;
35128;SDS011;21301;43.626;10.580;2023-02-28T08:13:00;3.53;;;1.83;;
35128;SDS011;21301;43.626;10.580;2023-02-28T08:15:26;3.72;;;1.73;;
35128;SDS011;21301;43.626;10.580;2023-02-28T08:17:52;5.05;;;1.95;;
35128;SDS011;21301;43.626;10.580;2023-02-28T08:20:17;3.60;;;1.70;;
35128;SDS011;21301;43.626;10.580;2023-02-28T08:22:44;7.10;;;1.88;;
35128;SDS011;21301;43.626;10.580;2023-02-28T08:25:10;2.83;;;1.35;;
35128;SDS011;21301;43.626;10.580;2023-02-28T08:27:36;4.07;;;2.08;;
35128;SDS011;21301;43.626;10.580;2023-02-28T08:30:02;2.60;;;1.15;;
35128;SDS011;21301;43.626;10.580;2023-02-28T08:32:28;6.65;;;1.92;;
35128;SDS011;21301;43.626;10.580;2023-02-28T08:34:54;3.55;;;1.70;;
35128;SDS011;21301;43.626;10.580;2023-02-28T08:37:20;4.40;;;2.28;;
35128;SDS011;21301;43.626;10.580;2023-02-28T08:39:46;4.43;;;2.20;;
35128;SDS011;21301;43.626;10.580;2023-02-28T08:42:12;3.33;;;1.60;;
35128;SDS011;21301;43.626;10.580;2023-02-28T08:44:37;3.90;;;1.98;;
35128;SDS011;21301;43.626;10.580;2023-02-28T08:47:03;4.72;;;2.20;;
35128;SDS011;21301;43.626;10.580;2023-02-28T08:49:29;3.72;;;1.73;;
35128;SDS011;21301;43.626;10.580;2023-02-28T08:51:55;3.75;;;1.95;;
35128;SDS011;21301;43.626;10.580;2023-02-28T08:54:22;4.13;;;1.80;;
35128;SDS011;21301;43.626;10.580;2023-02-28T08:56:49;3.90;;;1.55;;
35128;SDS011;21301;43.626;10.580;2023-02-28T08:59:15;5.93;;;1.85;;
35128;SDS011;21301;43.626;10.580;2023-02-28T09:01:41;5.90;;;1.80;;
35128;SDS011;21301;43.626;10.580;2023-02-28T09:04:08;4.30;;;2.25;;
35128;SDS011;21301;43.626;10.580;2023-02-28T09:06:36;5.93;;;2.55;;
35128;SDS011;21301;43.626;10.580;2023-02-28T09:09:02;5.38;;;2.08;;
35128;SDS011;21301;43.626;10.580;2023-02-28T09:11:31;3.97;;;1.75;;
35128;SDS011;21301;43.626;10.580;2023-02-28T09:13:57;4.20;;;1.88;;
35128;SDS011;21301;43.626;10.580;2023-02-28T09:16:25;5.07;;;2.55;;
35128;SDS011;21301;43.626;10.580;2023-02-28T09:18:51;5.78;;;2.33;;
35128;SDS011;21301;43.626;10.580;2023-02-28T09:21:18;4.07;;;2.03;;
35128;SDS011;21301;43.626;10.580;2023-02-28T09:23:45;5.75;;;2.65;;
35128;SDS011;21301;43.626;10.580;2023-02-28T09:26:15;4.57;;;1.85;;
35128;SDS011;21301;43.626;10.580;2023-02-28T09:28:42;4.72;;;2.38;;
35128;SDS011;21301;43.626;10.580;2023-02-28T09:31:16;4.90;;;2.63;;
35128;SDS011;21301;43.626;10.580;2023-02-28T09:33:47;4.53;;;2.22;;
35128;SDS011;21301;43.626;10.580;2023-02-28T09:36:14;4.40;;;2.10;;
35128;SDS011;21301;43.626;10.580;2023-02-28T09:38:40;4.28;;;1.90;;
35128;SDS011;21301;43.626;10.580;2023-02-28T09:41:16;5.88;;;2.40;;
35128;SDS011;21301;43.626;10.580;2023-02-28T09:43:46;4.45;;;2.00;;
35128;SDS011;21301;43.626;10.580;2023-02-28T09:46:29;4.05;;;1.88;;
35128;SDS011;21301;43.626;10.580;2023-02-28T09:49:05;5.10;;;2.20;;
35128;SDS011;21301;43.626;10.580;2023-02-28T09:51:55;2.97;;;1.35;;
35128;SDS011;21301;43.626;10.580;2023-02-28T09:54:31;3.85;;;1.92;;
35128;SDS011;21301;43.626;10.580;2023-02-28T09:57:04;4.88;;;2.05;;
35128;SDS011;21301;43.626;10.580;2023-02-28T10:05:16;4.65;;;2.03;;
35128;SDS011;21301;43.626;10.580;2023-02-28T10:18:47;5.93;;;2.28;;
35128;SDS011;21301;43.626;10.580;2023-02-28T10:21:23;3.78;;;1.60;;
35128;SDS011;21301;43.626;10.580;2023-02-28T10:23:58;7.90;;;2.42;;
35128;SDS011;21301;43.626;10.580;2023-02-28T10:26:29;4.07;;;1.77;;
35128;SDS011;21301;43.626;10.580;2023-02-28T10:28:57;4.38;;;1.85;;
35128;SDS011;21301;43.626;10.580;2023-02-28T10:31:22;4.20;;;1.83;;
35128;SDS011;21301;43.626;10.580;2023-02-28T10:33:51;4.78;;;2.40;;
35128;SDS011;21301;43.626;10.580;2023-02-28T10:36:18;5.18;;;2.17;;
35128;SDS011;21301;43.626;10.580;2023-02-28T10:38:48;5.65;;;2.35;;
35128;SDS011;21301;43.626;10.580;2023-02-28T10:41:29;9.00;;;2.53;;
35128;SDS011;21301;43.626;10.580;2023-02-28T10:44:17;4.35;;;1.90;;
35128;SDS011;21301;43.626;10.580;2023-02-28T10:46:48;7.43;;;3.05;;
35128;SDS011;21301;43.626;10.580;2023-02-28T10:49:17;6.32;;;2.50;;
35128;SDS011;21301;43.626;10.580;2023-02-28T10:51:46;11.50;;;3.10;;
35128;SDS011;21301;43.626;10.580;2023-02-28T10:54:56;5.13;;;2.58;;
35128;SDS011;21301;43.626;10.580;2023-02-28T10:59:44;6.93;;;2.72;;
35128;SDS011;21301;43.626;10.580;2023-02-28T11:02:31;6.07;;;2.58;;
35128;SDS011;21301;43.626;10.580;2023-02-28T11:05:02;6.65;;;2.70;;
35128;SDS011;21301;43.626;10.580;2023-02-28T11:07:52;6.18;;;2.65;;
35128;SDS011;21301;43.626;10.580;2023-02-28T11:10:20;5.43;;;2.35;;
35128;SDS011;21301;43.626;10.580;2023-02-28T11:12:49;5.18;;;2.28;;
35128;SDS011;21301;43.626;10.580;2023-02-28T11:15:22;5.15;;;2.20;;
35128;SDS011;21301;43.626;10.580;2023-02-28T11:17:54;5.43;;;2.03;;
35128;SDS011;21301;43.626;10.580;2023-02-28T11:20:30;5.35;;;2.47;;
35128;SDS011;21301;43.626;10.580;2023-02-28T11:22:58;4.30;;;1.83;;
35128;SDS011;21301;43.626;10.580;2023-02-28T11:25:28;5.18;;;2.45;;
35128;SDS011;21301;43.626;10.580;2023-02-28T11:27:58;5.43;;;2.45;;
35128;SDS011;21301;43.626;10.580;2023-02-28T11:30:33;4.43;;;2.30;;
35128;SDS011;21301;43.626;10.580;2023-02-28T11:35:51;5.38;;;2.28;;
35128;SDS011;21301;43.626;10.580;2023-02-28T11:38:19;4.60;;;2.40;;
35128;SDS011;21301;43.626;10.580;2023-02-28T11:56:33;5.55;;;2.45;;
35128;SDS011;21301;43.626;10.580;2023-02-28T12:04:35;5.97;;;3.35;;
35128;SDS011;21301;43.626;10.580;2023-02-28T12:18:20;8.30;;;3.50;;
35128;SDS011;21301;43.626;10.580;2023-02-28T12:21:11;7.35;;;3.67;;
35128;SDS011;21301;43.626;10.580;2023-02-28T12:26:30;6.22;;;2.65;;
35128;SDS011;21301;43.626;10.580;2023-02-28T12:31:49;5.57;;;3.22;;
35128;SDS011;21301;43.626;10.580;2023-02-28T12:34:34;6.95;;;2.95;;
35128;SDS011;21301;43.626;10.580;2023-02-28T12:39:54;5.80;;;3.45;;
35128;SDS011;21301;43.626;10.580;2023-02-28T12:42:31;6.95;;;3.22;;
35128;SDS011;21301;43.626;10.580;2023-02-28T12:45:03;7.13;;;3.47;;
35128;SDS011;21301;43.626;10.580;2023-02-28T12:47:35;5.33;;;3.17;;
35128;SDS011;21301;43.626;10.580;2023-02-28T12:50:06;6.88;;;3.05;;
35128;SDS011;21301;43.626;10.580;2023-02-28T12:58:07;7.05;;;3.55;;
35128;SDS011;21301;43.626;10.580;2023-02-28T13:00:35;7.00;;;3.65;;
35128;SDS011;21301;43.626;10.580;2023-02-28T13:11:43;10.32;;;4.20;;
35128;SDS011;21301;43.626;10.580;2023-02-28T13:19:36;6.72;;;4.22;;
35128;SDS011;21301;43.626;10.580;2023-02-28T13:22:05;7.85;;;4.05;;
35128;SDS011;21301;43.626;10.580;2023-02-28T13:28:11;18.70;;;4.28;;
35128;SDS011;21301;43.626;10.580;2023-02-28T13:33:25;7.68;;;3.67;;
35128;SDS011;21301;43.626;10.580;2023-02-28T13:36:09;8.10;;;3.75;;
35128;SDS011;21301;43.626;10.580;2023-02-28T13:38:58;9.80;;;4.15;;
35128;SDS011;21301;43.626;10.580;2023-02-28T13:44:05;8.95;;;4.22;;
35128;SDS011;21301;43.626;10.580;2023-02-28T13:59:53;8.68;;;4.32;;
35128;SDS011;21301;43.626;10.580;2023-02-28T14:02:52;10.65;;;4.60;;
35128;SDS011;21301;43.626;10.580;2023-02-28T14:05:38;10.93;;;5.38;;
35128;SDS011;21301;43.626;10.580;2023-02-28T14:08:08;9.70;;;5.10;;
35128;SDS011;21301;43.626;10.580;2023-02-28T14:10:50;10.50;;;4.32;;
35128;SDS011;21301;43.626;10.580;2023-02-28T14:13:45;9.13;;;4.78;;
35128;SDS011;21301;43.626;10.580;2023-02-28T14:16:15;6.68;;;3.78;;
35128;SDS011;21301;43.626;10.580;2023-02-28T14:18:55;10.20;;;4.93;;
35128;SDS011;21301;43.626;10.580;2023-02-28T14:21:27;8.38;;;4.28;;
35128;SDS011;21301;43.626;10.580;2023-02-28T14:38:01;10.50;;;4.85;;
35128;SDS011;21301;43.626;10.580;2023-02-28T14:40:33;9.73;;;4.32;;
35128;SDS011;21301;43.626;10.580;2023-02-28T14:43:01;8.52;;;5.20;;
35128;SDS011;21301;43.626;10.580;2023-02-28T14:45:30;8.95;;;4.57;;
35128;SDS011;21301;43.626;10.580;2023-02-28T14:48:01;8.82;;;4.72;;
35128;SDS011;21301;43.626;10.580;2023-02-28T14:50:33;11.85;;;5.90;;
35128;SDS011;21301;43.626;10.580;2023-02-28T14:53:00;8.55;;;4.63;;
35128;SDS011;21301;43.626;10.580;2023-02-28T14:55:31;8.63;;;4.03;;
35128;SDS011;21301;43.626;10.580;2023-02-28T14:58:00;5.88;;;3.47;;
35128;SDS011;21301;43.626;10.580;2023-02-28T15:00:46;8.20;;;4.90;;
35128;SDS011;21301;43.626;10.580;2023-02-28T15:06:05;8.95;;;4.60;;
35128;SDS011;21301;43.626;10.580;2023-02-28T15:08:38;11.07;;;5.50;;
35128;SDS011;21301;43.626;10.580;2023-02-28T15:11:05;8.07;;;3.60;;
35128;SDS011;21301;43.626;10.580;2023-02-28T15:13:49;8.85;;;3.97;;
35128;SDS011;21301;43.626;10.580;2023-02-28T15:16:17;6.70;;;3.55;;
35128;SDS011;21301;43.626;10.580;2023-02-28T15:19:08;9.63;;;4.57;;
35128;SDS011;21301;43.626;10.580;2023-02-28T15:21:43;7.78;;;4.13;;
35128;SDS011;21301;43.626;10.580;2023-02-28T15:24:18;7.95;;;4.18;;
35128;SDS011;21301;43.626;10.580;2023-02-28T15:26:56;8.77;;;4.40;;
35128;SDS011;21301;43.626;10.580;2023-02-28T15:29:24;8.10;;;4.00;;
35128;SDS011;21301;43.626;10.580;2023-02-28T15:31:56;7.32;;;4.35;;
35128;SDS011;21301;43.626;10.580;2023-02-28T15:37:00;7.90;;;3.47;;
35128;SDS011;21301;43.626;10.580;2023-02-28T15:39:27;10.32;;;4.72;;
35128;SDS011;21301;43.626;10.580;2023-02-28T15:42:09;8.93;;;4.88;;
35128;SDS011;21301;43.626;10.580;2023-02-28T15:44:37;8.15;;;3.65;;
35128;SDS011;21301;43.626;10.580;2023-02-28T15:47:05;9.15;;;3.63;;
35128;SDS011;21301;43.626;10.580;2023-02-28T15:49:40;10.98;;;4.70;;
35128;SDS011;21301;43.626;10.580;2023-02-28T15:52:13;7.27;;;3.80;;
35128;SDS011;21301;43.626;10.580;2023-02-28T15:54:42;6.53;;;3.20;;
35128;SDS011;21301;43.626;10.580;2023-02-28T15:57:13;8.45;;;4.32;;
35128;SDS011;21301;43.626;10.580;2023-02-28T16:00:06;6.50;;;3.42;;
35128;SDS011;21301;43.626;10.580;2023-02-28T16:02:37;9.27;;;5.22;;
35128;SDS011;21301;43.626;10.580;2023-02-28T16:07:36;7.75;;;4.30;;
35128;SDS011;21301;43.626;10.580;2023-02-28T16:10:04;9.73;;;4.80;;
35128;SDS011;21301;43.626;10.580;2023-02-28T16:12:32;7.95;;;4.20;;
35128;SDS011;21301;43.626;10.580;2023-02-28T16:15:01;7.53;;;3.85;;
35128;SDS011;21301;43.626;10.580;2023-02-28T16:17:34;10.40;;;5.43;;
35128;SDS011;21301;43.626;10.580;2023-02-28T16:20:05;9.25;;;4.65;;
35128;SDS011;21301;43.626;10.580;2023-02-28T16:22:57;10.48;;;5.15;;
35128;SDS011;21301;43.626;10.580;2023-02-28T16:25:38;10.52;;;4.40;;
35128;SDS011;21301;43.626;10.580;2023-02-28T16:28:12;13.25;;;6.10;;
35128;SDS011;21301;43.626;10.580;2023-02-28T16:30:45;8.73;;;5.43;;
35128;SDS011;21301;43.626;10.580;2023-02-28T16:33:12;9.05;;;4.88;;
35128;SDS011;21301;43.626;10.580;2023-02-28T16:35:37;8.75;;;3.63;;
35128;SDS011;21301;43.626;10.580;2023-02-28T16:38:03;9.35;;;4.47;;
35128;SDS011;21301;43.626;10.580;2023-02-28T16:40:29;8.55;;;4.53;;
35128;SDS011;21301;43.626;10.580;2023-02-28T16:42:59;9.25;;;4.30;;
35128;SDS011;21301;43.626;10.580;2023-02-28T16:45:29;7.55;;;3.85;;
35128;SDS011;21301;43.626;10.580;2023-02-28T16:47:55;9.32;;;4.68;;
35128;SDS011;21301;43.626;10.580;2023-02-28T16:50:25;10.15;;;4.95;;
35128;SDS011;21301;43.626;10.580;2023-02-28T16:52:53;8.98;;;5.75;;
35128;SDS011;21301;43.626;10.580;2023-02-28T16:55:20;9.30;;;5.13;;
35128;SDS011;21301;43.626;10.580;2023-02-28T16:57:48;11.50;;;4.68;;
35128;SDS011;21301;43.626;10.580;2023-02-28T17:00:18;12.90;;;5.93;;
35128;SDS011;21301;43.626;10.580;2023-02-28T17:02:44;9.43;;;5.90;;
35128;SDS011;21301;43.626;10.580;2023-02-28T17:05:13;14.00;;;5.60;;
35128;SDS011;21301;43.626;10.580;2023-02-28T17:07:40;9.25;;;5.40;;
35128;SDS011;21301;43.626;10.580;2023-02-28T17:10:20;9.25;;;5.00;;
35128;SDS011;21301;43.626;10.580;2023-02-28T17:12:48;9.68;;;5.20;;
35128;SDS011;21301;43.626;10.580;2023-02-28T17:15:14;11.50;;;4.82;;
35128;SDS011;21301;43.626;10.580;2023-02-28T17:17:42;8.57;;;4.78;;
35128;SDS011;21301;43.626;10.580;2023-02-28T17:20:12;11.82;;;5.03;;
35128;SDS011;21301;43.626;10.580;2023-02-28T17:22:39;12.50;;;5.25;;
35128;SDS011;21301;43.626;10.580;2023-02-28T17:25:05;8.20;;;4.55;;
35128;SDS011;21301;43.626;10.580;2023-02-28T17:27:32;9.18;;;4.95;;
35128;SDS011;21301;43.626;10.580;2023-02-28T17:29:58;9.98;;;5.30;;
35128;SDS011;21301;43.626;10.580;2023-02-28T17:32:25;11.10;;;5.47;;
35128;SDS011;21301;43.626;10.580;2023-02-28T17:34:51;9.50;;;4.00;;
35128;SDS011;21301;43.626;10.580;2023-02-28T17:37:17;9.00;;;5.00;;